sensor_id;sensor_type;location;lat;lon;timestamp;P1;durP1;ratioP1;P2;durP2;ratioP2
15915;SDS011;8057;47.830;-3.870;2024-02-23T00:01:15;13.50;;;3.10;;
15915;SDS011;8057;47.830;-3.870;2024-02-23T00:05:24;10.80;;;2.47;;
15915;SDS011;8057;47.830;-3.870;2024-02-23T00:09:34;11.77;;;2.63;;
15915;SDS011;8057;47.830;-3.870;2024-02-23T00:13:43;16.53;;;3.23;;
15915;SDS011;8057;47.830;-3.870;2024-02-23T00:17:52;16.43;;;4.10;;
15915;SDS011;8057;47.830;-3.870;2024-02-23T00:22:01;14.73;;;3.83;;
15915;SDS011;8057;47.830;-3.870;2024-02-23T00:26:16;14.47;;;3.40;;
15915;SDS011;8057;47.830;-3.870;2024-02-23T00:30:25;22.30;;;4.77;;
15915;SDS011;8057;47.830;-3.870;2024-02-23T00:34:34;18.73;;;3.47;;
15915;SDS011;8057;47.830;-3.870;2024-02-23T00:38:44;11.47;;;2.80;;
15915;SDS011;8057;47.830;-3.870;2024-02-23T00:42:54;13.57;;;3.27;;
15915;SDS011;8057;47.830;-3.870;2024-02-23T00:47:03;15.70;;;3.53;;
15915;SDS011;8057;47.830;-3.870;2024-02-23T00:51:13;13.80;;;3.07;;
15915;SDS011;8057;47.830;-3.870;2024-02-23T00:55:22;10.83;;;2.10;;
15915;SDS011;8057;47.830;-3.870;2024-02-23T00:59:33;9.80;;;2.67;;
15915;SDS011;8057;47.830;-3.870;2024-02-23T01:03:42;11.13;;;2.13;;
15915;SDS011;8057;47.830;-3.870;2024-02-23T01:07:51;5.27;;;1.60;;
15915;SDS011;8057;47.830;-3.870;2024-02-23T01:12:00;11.60;;;1.67;;
15915;SDS011;8057;47.830;-3.870;2024-02-23T01:16:11;6.47;;;1.60;;
15915;SDS011;8057;47.830;-3.870;2024-02-23T01:20:20;10.87;;;1.80;;
15915;SDS011;8057;47.830;-3.870;2024-02-23T01:24:29;15.30;;;2.63;;
15915;SDS011;8057;47.830;-3.870;2024-02-23T01:28:38;12.37;;;2.73;;
15915;SDS011;8057;47.830;-3.870;2024-02-23T01:32:48;16.17;;;2.93;;
15915;SDS011;8057;47.830;-3.870;2024-02-23T01:36:57;12.93;;;2.90;;
15915;SDS011;8057;47.830;-3.870;2024-02-23T01:41:06;11.03;;;2.03;;
15915;SDS011;8057;47.830;-3.870;2024-02-23T01:45:15;11.83;;;2.13;;
15915;SDS011;8057;47.830;-3.870;2024-02-23T01:49:26;10.00;;;1.90;;
15915;SDS011;8057;47.830;-3.870;2024-02-23T01:53:39;7.30;;;2.13;;
15915;SDS011;8057;47.830;-3.870;2024-02-23T01:57:48;6.77;;;2.23;;
15915;SDS011;8057;47.830;-3.870;2024-02-23T02:01:57;16.17;;;2.83;;
15915;SDS011;8057;47.830;-3.870;2024-02-23T02:06:09;10.30;;;2.10;;
15915;SDS011;8057;47.830;-3.870;2024-02-23T02:10:18;11.23;;;2.63;;
15915;SDS011;8057;47.830;-3.870;2024-02-23T02:14:28;9.93;;;2.40;;
15915;SDS011;8057;47.830;-3.870;2024-02-23T02:18:38;8.93;;;2.20;;
15915;SDS011;8057;47.830;-3.870;2024-02-23T02:22:48;18.97;;;3.43;;
15915;SDS011;8057;47.830;-3.870;2024-02-23T02:26:57;13.17;;;2.73;;
15915;SDS011;8057;47.830;-3.870;2024-02-23T02:31:06;6.40;;;1.57;;
15915;SDS011;8057;47.830;-3.870;2024-02-23T02:35:15;6.03;;;1.60;;
15915;SDS011;8057;47.830;-3.870;2024-02-23T02:39:26;6.63;;;1.53;;
15915;SDS011;8057;47.830;-3.870;2024-02-23T02:43:35;5.67;;;1.53;;
15915;SDS011;8057;47.830;-3.870;2024-02-23T02:47:44;6.10;;;1.53;;
15915;SDS011;8057;47.830;-3.870;2024-02-23T02:51:53;6.63;;;1.70;;
15915;SDS011;8057;47.830;-3.870;2024-02-23T02:56:06;5.00;;;1.60;;
15915;SDS011;8057;47.830;-3.870;2024-02-23T03:00:16;8.13;;;1.83;;
15915;SDS011;8057;47.830;-3.870;2024-02-23T03:04:25;8.17;;;1.80;;
15915;SDS011;8057;47.830;-3.870;2024-02-23T03:08:33;8.40;;;2.17;;
15915;SDS011;8057;47.830;-3.870;2024-02-23T03:12:44;11.17;;;2.70;;
15915;SDS011;8057;47.830;-3.870;2024-02-23T03:16:53;10.67;;;2.33;;
15915;SDS011;8057;47.830;-3.870;2024-02-23T03:21:02;15.97;;;2.97;;
15915;SDS011;8057;47.830;-3.870;2024-02-23T03:25:12;10.43;;;2.80;;
15915;SDS011;8057;47.830;-3.870;2024-02-23T03:29:22;16.77;;;3.63;;
15915;SDS011;8057;47.830;-3.870;2024-02-23T03:33:31;19.67;;;3.40;;
15915;SDS011;8057;47.830;-3.870;2024-02-23T03:37:40;9.67;;;2.50;;
15915;SDS011;8057;47.830;-3.870;2024-02-23T03:41:49;9.27;;;2.03;;
15915;SDS011;8057;47.830;-3.870;2024-02-23T03:45:59;9.40;;;2.50;;
15915;SDS011;8057;47.830;-3.870;2024-02-23T03:50:08;6.47;;;1.60;;
15915;SDS011;8057;47.830;-3.870;2024-02-23T03:54:18;8.20;;;1.73;;
15915;SDS011;8057;47.830;-3.870;2024-02-23T03:58:27;7.90;;;1.70;;
15915;SDS011;8057;47.830;-3.870;2024-02-23T04:02:37;11.97;;;2.00;;
15915;SDS011;8057;47.830;-3.870;2024-02-23T04:06:47;7.60;;;1.87;;
15915;SDS011;8057;47.830;-3.870;2024-02-23T04:10:56;6.83;;;1.57;;
15915;SDS011;8057;47.830;-3.870;2024-02-23T04:15:05;9.00;;;1.60;;
15915;SDS011;8057;47.830;-3.870;2024-02-23T04:19:15;7.03;;;2.20;;
15915;SDS011;8057;47.830;-3.870;2024-02-23T04:23:24;7.43;;;1.87;;
15915;SDS011;8057;47.830;-3.870;2024-02-23T04:27:33;15.57;;;2.40;;
15915;SDS011;8057;47.830;-3.870;2024-02-23T04:31:42;9.57;;;2.37;;
15915;SDS011;8057;47.830;-3.870;2024-02-23T04:35:53;6.20;;;1.67;;
15915;SDS011;8057;47.830;-3.870;2024-02-23T04:40:02;6.23;;;1.50;;
15915;SDS011;8057;47.830;-3.870;2024-02-23T04:44:12;7.97;;;1.80;;
15915;SDS011;8057;47.830;-3.870;2024-02-23T04:48:21;10.03;;;2.47;;
15915;SDS011;8057;47.830;-3.870;2024-02-23T04:52:32;9.30;;;2.27;;
15915;SDS011;8057;47.830;-3.870;2024-02-23T04:56:41;9.80;;;1.73;;
15915;SDS011;8057;47.830;-3.870;2024-02-23T05:00:50;9.20;;;1.80;;
15915;SDS011;8057;47.830;-3.870;2024-02-23T05:04:59;12.77;;;2.10;;
15915;SDS011;8057;47.830;-3.870;2024-02-23T05:09:10;9.50;;;2.00;;
15915;SDS011;8057;47.830;-3.870;2024-02-23T05:13:19;11.10;;;2.53;;
15915;SDS011;8057;47.830;-3.870;2024-02-23T05:17:27;8.47;;;1.63;;
15915;SDS011;8057;47.830;-3.870;2024-02-23T05:21:36;12.63;;;2.40;;
15915;SDS011;8057;47.830;-3.870;2024-02-23T05:25:47;6.60;;;1.53;;
15915;SDS011;8057;47.830;-3.870;2024-02-23T05:29:56;6.30;;;1.13;;
15915;SDS011;8057;47.830;-3.870;2024-02-23T05:34:05;8.87;;;1.93;;
15915;SDS011;8057;47.830;-3.870;2024-02-23T05:38:14;5.53;;;1.70;;
15915;SDS011;8057;47.830;-3.870;2024-02-23T05:42:25;4.60;;;1.30;;
15915;SDS011;8057;47.830;-3.870;2024-02-23T05:46:34;5.63;;;1.70;;
15915;SDS011;8057;47.830;-3.870;2024-02-23T05:50:43;4.77;;;1.90;;
15915;SDS011;8057;47.830;-3.870;2024-02-23T05:54:52;6.47;;;1.70;;
15915;SDS011;8057;47.830;-3.870;2024-02-23T05:59:04;8.57;;;1.93;;
15915;SDS011;8057;47.830;-3.870;2024-02-23T06:03:13;6.17;;;1.50;;
15915;SDS011;8057;47.830;-3.870;2024-02-23T06:07:22;3.87;;;1.20;;
15915;SDS011;8057;47.830;-3.870;2024-02-23T06:11:36;7.90;;;1.77;;
15915;SDS011;8057;47.830;-3.870;2024-02-23T06:15:46;7.03;;;1.80;;
15915;SDS011;8057;47.830;-3.870;2024-02-23T06:19:55;6.50;;;1.63;;
15915;SDS011;8057;47.830;-3.870;2024-02-23T06:24:06;9.80;;;2.70;;
15915;SDS011;8057;47.830;-3.870;2024-02-23T06:28:15;8.20;;;2.33;;
15915;SDS011;8057;47.830;-3.870;2024-02-23T06:32:26;10.63;;;2.47;;
15915;SDS011;8057;47.830;-3.870;2024-02-23T06:36:36;9.53;;;2.07;;
15915;SDS011;8057;47.830;-3.870;2024-02-23T06:40:45;8.47;;;2.27;;
15915;SDS011;8057;47.830;-3.870;2024-02-23T06:44:58;12.67;;;3.13;;
15915;SDS011;8057;47.830;-3.870;2024-02-23T06:49:09;11.30;;;2.73;;
15915;SDS011;8057;47.830;-3.870;2024-02-23T06:53:18;10.30;;;2.30;;
15915;SDS011;8057;47.830;-3.870;2024-02-23T06:57:27;12.10;;;2.87;;
15915;SDS011;8057;47.830;-3.870;2024-02-23T07:01:47;11.03;;;2.70;;
15915;SDS011;8057;47.830;-3.870;2024-02-23T07:05:58;7.30;;;2.40;;
15915;SDS011;8057;47.830;-3.870;2024-02-23T07:10:07;10.70;;;2.57;;
15915;SDS011;8057;47.830;-3.870;2024-02-23T07:14:17;12.60;;;2.70;;
15915;SDS011;8057;47.830;-3.870;2024-02-23T07:18:27;5.30;;;2.03;;
15915;SDS011;8057;47.830;-3.870;2024-02-23T07:22:37;13.73;;;2.23;;
15915;SDS011;8057;47.830;-3.870;2024-02-23T07:26:46;12.87;;;2.80;;
15915;SDS011;8057;47.830;-3.870;2024-02-23T07:30:55;7.73;;;1.50;;
15915;SDS011;8057;47.830;-3.870;2024-02-23T07:35:04;7.80;;;1.67;;
15915;SDS011;8057;47.830;-3.870;2024-02-23T07:39:15;4.90;;;1.33;;
15915;SDS011;8057;47.830;-3.870;2024-02-23T07:43:24;7.00;;;1.30;;
15915;SDS011;8057;47.830;-3.870;2024-02-23T07:47:35;5.83;;;1.80;;
15915;SDS011;8057;47.830;-3.870;2024-02-23T07:51:44;8.23;;;2.13;;
15915;SDS011;8057;47.830;-3.870;2024-02-23T07:55:54;9.27;;;2.73;;
15915;SDS011;8057;47.830;-3.870;2024-02-23T08:00:06;9.20;;;3.33;;
15915;SDS011;8057;47.830;-3.870;2024-02-23T08:04:16;8.80;;;3.13;;
15915;SDS011;8057;47.830;-3.870;2024-02-23T08:08:26;10.97;;;3.30;;
15915;SDS011;8057;47.830;-3.870;2024-02-23T08:12:36;12.03;;;4.83;;
15915;SDS011;8057;47.830;-3.870;2024-02-23T08:16:49;7.23;;;2.17;;
15915;SDS011;8057;47.830;-3.870;2024-02-23T08:20:58;6.70;;;2.20;;
15915;SDS011;8057;47.830;-3.870;2024-02-23T08:25:09;8.83;;;2.77;;
15915;SDS011;8057;47.830;-3.870;2024-02-23T08:29:22;5.30;;;1.43;;
15915;SDS011;8057;47.830;-3.870;2024-02-23T08:33:31;7.83;;;1.83;;
15915;SDS011;8057;47.830;-3.870;2024-02-23T08:37:40;9.07;;;2.23;;
15915;SDS011;8057;47.830;-3.870;2024-02-23T08:41:50;8.47;;;2.57;;
15915;SDS011;8057;47.830;-3.870;2024-02-23T08:46:01;13.27;;;2.60;;
15915;SDS011;8057;47.830;-3.870;2024-02-23T08:50:15;11.10;;;2.07;;
15915;SDS011;8057;47.830;-3.870;2024-02-23T08:54:25;10.87;;;2.07;;
15915;SDS011;8057;47.830;-3.870;2024-02-23T08:58:34;15.50;;;2.50;;
15915;SDS011;8057;47.830;-3.870;2024-02-23T09:02:45;14.07;;;3.37;;
15915;SDS011;8057;47.830;-3.870;2024-02-23T09:06:55;10.80;;;3.37;;
15915;SDS011;8057;47.830;-3.870;2024-02-23T09:11:04;8.53;;;2.33;;
15915;SDS011;8057;47.830;-3.870;2024-02-23T09:15:13;9.67;;;2.23;;
15915;SDS011;8057;47.830;-3.870;2024-02-23T09:19:24;14.63;;;3.67;;
15915;SDS011;8057;47.830;-3.870;2024-02-23T09:23:34;8.40;;;2.33;;
15915;SDS011;8057;47.830;-3.870;2024-02-23T09:27:43;8.37;;;2.60;;
15915;SDS011;8057;47.830;-3.870;2024-02-23T09:31:52;5.17;;;1.80;;
15915;SDS011;8057;47.830;-3.870;2024-02-23T09:36:03;5.03;;;1.47;;
15915;SDS011;8057;47.830;-3.870;2024-02-23T09:40:14;6.30;;;1.40;;
15915;SDS011;8057;47.830;-3.870;2024-02-23T09:44:23;4.13;;;1.80;;
15915;SDS011;8057;47.830;-3.870;2024-02-23T09:48:34;7.03;;;2.43;;
15915;SDS011;8057;47.830;-3.870;2024-02-23T09:52:47;6.90;;;2.63;;
15915;SDS011;8057;47.830;-3.870;2024-02-23T09:56:58;8.33;;;2.87;;
15915;SDS011;8057;47.830;-3.870;2024-02-23T10:01:08;7.83;;;2.30;;
15915;SDS011;8057;47.830;-3.870;2024-02-23T10:05:18;7.73;;;3.30;;
15915;SDS011;8057;47.830;-3.870;2024-02-23T10:09:32;8.43;;;2.60;;
15915;SDS011;8057;47.830;-3.870;2024-02-23T10:13:41;9.97;;;2.40;;
15915;SDS011;8057;47.830;-3.870;2024-02-23T10:17:50;9.63;;;2.53;;
15915;SDS011;8057;47.830;-3.870;2024-02-23T10:22:01;7.20;;;2.07;;
15915;SDS011;8057;47.830;-3.870;2024-02-23T10:26:11;7.43;;;2.30;;
15915;SDS011;8057;47.830;-3.870;2024-02-23T10:30:26;8.03;;;2.40;;
15915;SDS011;8057;47.830;-3.870;2024-02-23T10:34:35;10.87;;;2.43;;
15915;SDS011;8057;47.830;-3.870;2024-02-23T10:38:50;8.60;;;2.13;;
15915;SDS011;8057;47.830;-3.870;2024-02-23T10:43:06;7.37;;;2.27;;
15915;SDS011;8057;47.830;-3.870;2024-02-23T10:47:21;11.23;;;2.43;;
15915;SDS011;8057;47.830;-3.870;2024-02-23T10:51:30;8.70;;;2.60;;
15915;SDS011;8057;47.830;-3.870;2024-02-23T10:55:40;11.07;;;3.23;;
15915;SDS011;8057;47.830;-3.870;2024-02-23T10:59:53;10.17;;;2.90;;
15915;SDS011;8057;47.830;-3.870;2024-02-23T11:04:02;7.60;;;2.70;;
15915;SDS011;8057;47.830;-3.870;2024-02-23T11:08:12;9.03;;;2.37;;
15915;SDS011;8057;47.830;-3.870;2024-02-23T11:12:22;9.07;;;2.63;;
15915;SDS011;8057;47.830;-3.870;2024-02-23T11:16:34;8.47;;;2.10;;
15915;SDS011;8057;47.830;-3.870;2024-02-23T11:20:53;6.67;;;2.17;;
15915;SDS011;8057;47.830;-3.870;2024-02-23T11:25:03;6.73;;;1.67;;
15915;SDS011;8057;47.830;-3.870;2024-02-23T11:29:13;5.97;;;2.03;;
15915;SDS011;8057;47.830;-3.870;2024-02-23T11:33:27;4.43;;;1.80;;
15915;SDS011;8057;47.830;-3.870;2024-02-23T11:37:45;8.30;;;2.60;;
15915;SDS011;8057;47.830;-3.870;2024-02-23T11:41:55;6.80;;;1.73;;
15915;SDS011;8057;47.830;-3.870;2024-02-23T11:46:06;8.77;;;1.70;;
15915;SDS011;8057;47.830;-3.870;2024-02-23T11:50:17;7.83;;;2.13;;
15915;SDS011;8057;47.830;-3.870;2024-02-23T11:54:27;7.50;;;3.13;;
15915;SDS011;8057;47.830;-3.870;2024-02-23T11:58:39;8.57;;;2.47;;
15915;SDS011;8057;47.830;-3.870;2024-02-23T12:02:48;8.00;;;3.30;;
15915;SDS011;8057;47.830;-3.870;2024-02-23T12:06:58;5.20;;;2.80;;
15915;SDS011;8057;47.830;-3.870;2024-02-23T12:11:08;4.83;;;2.20;;
15915;SDS011;8057;47.830;-3.870;2024-02-23T12:15:21;3.83;;;1.70;;
15915;SDS011;8057;47.830;-3.870;2024-02-23T12:19:30;3.77;;;1.67;;
15915;SDS011;8057;47.830;-3.870;2024-02-23T12:23:43;4.23;;;1.57;;
15915;SDS011;8057;47.830;-3.870;2024-02-23T12:27:54;5.70;;;1.60;;
15915;SDS011;8057;47.830;-3.870;2024-02-23T12:32:04;9.23;;;2.27;;
15915;SDS011;8057;47.830;-3.870;2024-02-23T12:36:14;6.87;;;2.00;;
15915;SDS011;8057;47.830;-3.870;2024-02-23T12:40:25;7.43;;;2.40;;
15915;SDS011;8057;47.830;-3.870;2024-02-23T12:44:34;11.90;;;2.47;;
15915;SDS011;8057;47.830;-3.870;2024-02-23T12:48:43;8.33;;;2.50;;
15915;SDS011;8057;47.830;-3.870;2024-02-23T12:52:52;7.83;;;3.03;;
15915;SDS011;8057;47.830;-3.870;2024-02-23T12:57:02;8.27;;;2.40;;
15915;SDS011;8057;47.830;-3.870;2024-02-23T13:01:12;6.00;;;2.30;;
15915;SDS011;8057;47.830;-3.870;2024-02-23T13:05:21;6.57;;;2.40;;
15915;SDS011;8057;47.830;-3.870;2024-02-23T13:09:30;9.80;;;2.27;;
15915;SDS011;8057;47.830;-3.870;2024-02-23T13:13:40;9.50;;;3.13;;
15915;SDS011;8057;47.830;-3.870;2024-02-23T13:17:49;7.47;;;3.00;;
15915;SDS011;8057;47.830;-3.870;2024-02-23T13:21:58;3.80;;;1.90;;
15915;SDS011;8057;47.830;-3.870;2024-02-23T13:26:08;8.73;;;2.00;;
15915;SDS011;8057;47.830;-3.870;2024-02-23T13:30:21;5.97;;;2.43;;
15915;SDS011;8057;47.830;-3.870;2024-02-23T13:34:30;5.10;;;2.27;;
15915;SDS011;8057;47.830;-3.870;2024-02-23T13:38:39;5.50;;;1.63;;
15915;SDS011;8057;47.830;-3.870;2024-02-23T13:42:49;5.27;;;1.40;;
15915;SDS011;8057;47.830;-3.870;2024-02-23T13:47:00;5.97;;;1.80;;
15915;SDS011;8057;47.830;-3.870;2024-02-23T13:51:09;5.53;;;1.83;;
15915;SDS011;8057;47.830;-3.870;2024-02-23T13:55:18;7.10;;;1.90;;
15915;SDS011;8057;47.830;-3.870;2024-02-23T13:59:28;6.77;;;2.63;;
15915;SDS011;8057;47.830;-3.870;2024-02-23T14:03:38;10.87;;;3.60;;
15915;SDS011;8057;47.830;-3.870;2024-02-23T14:07:47;9.87;;;3.10;;
15915;SDS011;8057;47.830;-3.870;2024-02-23T14:11:56;9.53;;;3.70;;
15915;SDS011;8057;47.830;-3.870;2024-02-23T14:16:06;6.30;;;2.70;;
15915;SDS011;8057;47.830;-3.870;2024-02-23T14:20:16;5.17;;;1.90;;
15915;SDS011;8057;47.830;-3.870;2024-02-23T14:24:25;6.40;;;1.83;;
15915;SDS011;8057;47.830;-3.870;2024-02-23T14:28:34;7.10;;;2.17;;
15915;SDS011;8057;47.830;-3.870;2024-02-23T14:32:43;7.20;;;1.77;;
15915;SDS011;8057;47.830;-3.870;2024-02-23T14:36:54;10.23;;;2.13;;
15915;SDS011;8057;47.830;-3.870;2024-02-23T14:41:03;6.00;;;1.77;;
15915;SDS011;8057;47.830;-3.870;2024-02-23T14:45:16;5.53;;;1.60;;
15915;SDS011;8057;47.830;-3.870;2024-02-23T14:49:24;5.97;;;1.90;;
15915;SDS011;8057;47.830;-3.870;2024-02-23T14:53:35;6.50;;;1.50;;
15915;SDS011;8057;47.830;-3.870;2024-02-23T14:57:44;5.33;;;1.67;;
15915;SDS011;8057;47.830;-3.870;2024-02-23T15:01:56;4.70;;;1.60;;
15915;SDS011;8057;47.830;-3.870;2024-02-23T15:06:05;5.77;;;1.50;;
15915;SDS011;8057;47.830;-3.870;2024-02-23T15:10:17;6.37;;;1.37;;
15915;SDS011;8057;47.830;-3.870;2024-02-23T15:14:26;4.67;;;1.20;;
15915;SDS011;8057;47.830;-3.870;2024-02-23T15:18:35;5.43;;;1.20;;
15915;SDS011;8057;47.830;-3.870;2024-02-23T15:22:44;3.43;;;1.07;;
15915;SDS011;8057;47.830;-3.870;2024-02-23T15:26:58;5.20;;;1.30;;
15915;SDS011;8057;47.830;-3.870;2024-02-23T15:31:07;5.50;;;2.00;;
15915;SDS011;8057;47.830;-3.870;2024-02-23T15:35:16;5.53;;;1.90;;
15915;SDS011;8057;47.830;-3.870;2024-02-23T15:39:26;6.90;;;1.87;;
15915;SDS011;8057;47.830;-3.870;2024-02-23T15:43:36;5.50;;;1.93;;
15915;SDS011;8057;47.830;-3.870;2024-02-23T15:47:45;3.30;;;1.57;;
15915;SDS011;8057;47.830;-3.870;2024-02-23T15:51:54;4.77;;;1.70;;
15915;SDS011;8057;47.830;-3.870;2024-02-23T15:56:07;3.83;;;1.40;;
15915;SDS011;8057;47.830;-3.870;2024-02-23T16:00:18;3.50;;;1.30;;
15915;SDS011;8057;47.830;-3.870;2024-02-23T16:04:27;4.73;;;1.77;;
15915;SDS011;8057;47.830;-3.870;2024-02-23T16:08:39;6.07;;;1.40;;
15915;SDS011;8057;47.830;-3.870;2024-02-23T16:12:50;5.17;;;1.73;;
15915;SDS011;8057;47.830;-3.870;2024-02-23T16:17:01;3.57;;;1.23;;
15915;SDS011;8057;47.830;-3.870;2024-02-23T16:21:10;6.07;;;1.83;;
15915;SDS011;8057;47.830;-3.870;2024-02-23T16:25:22;5.83;;;1.67;;
15915;SDS011;8057;47.830;-3.870;2024-02-23T16:29:31;6.23;;;1.77;;
15915;SDS011;8057;47.830;-3.870;2024-02-23T16:33:42;8.07;;;2.07;;
15915;SDS011;8057;47.830;-3.870;2024-02-23T16:37:51;4.37;;;1.57;;
15915;SDS011;8057;47.830;-3.870;2024-02-23T16:42:01;3.63;;;1.10;;
15915;SDS011;8057;47.830;-3.870;2024-02-23T16:46:12;6.87;;;1.87;;
15915;SDS011;8057;47.830;-3.870;2024-02-23T16:50:23;3.23;;;1.57;;
15915;SDS011;8057;47.830;-3.870;2024-02-23T16:54:32;6.00;;;1.90;;
15915;SDS011;8057;47.830;-3.870;2024-02-23T16:58:42;7.37;;;1.90;;
15915;SDS011;8057;47.830;-3.870;2024-02-23T17:02:51;6.77;;;2.20;;
15915;SDS011;8057;47.830;-3.870;2024-02-23T17:07:02;8.33;;;3.10;;
15915;SDS011;8057;47.830;-3.870;2024-02-23T17:11:12;6.23;;;2.73;;
15915;SDS011;8057;47.830;-3.870;2024-02-23T17:15:21;7.80;;;2.93;;
15915;SDS011;8057;47.830;-3.870;2024-02-23T17:19:30;15.17;;;3.50;;
15915;SDS011;8057;47.830;-3.870;2024-02-23T17:23:41;7.03;;;2.30;;
15915;SDS011;8057;47.830;-3.870;2024-02-23T17:27:50;7.20;;;2.13;;
15915;SDS011;8057;47.830;-3.870;2024-02-23T17:31:59;12.57;;;3.43;;
15915;SDS011;8057;47.830;-3.870;2024-02-23T17:36:08;8.57;;;2.93;;
15915;SDS011;8057;47.830;-3.870;2024-02-23T17:40:19;14.03;;;5.93;;
15915;SDS011;8057;47.830;-3.870;2024-02-23T17:44:28;11.93;;;5.60;;
15915;SDS011;8057;47.830;-3.870;2024-02-23T17:48:37;12.43;;;5.60;;
15915;SDS011;8057;47.830;-3.870;2024-02-23T17:52:46;10.40;;;4.07;;
15915;SDS011;8057;47.830;-3.870;2024-02-23T17:56:57;12.00;;;3.43;;
15915;SDS011;8057;47.830;-3.870;2024-02-23T18:01:06;12.87;;;4.13;;
15915;SDS011;8057;47.830;-3.870;2024-02-23T18:05:15;10.80;;;4.37;;
15915;SDS011;8057;47.830;-3.870;2024-02-23T18:09:24;11.87;;;5.60;;
15915;SDS011;8057;47.830;-3.870;2024-02-23T18:13:34;11.70;;;3.97;;
15915;SDS011;8057;47.830;-3.870;2024-02-23T18:17:46;13.43;;;5.20;;
15915;SDS011;8057;47.830;-3.870;2024-02-23T18:21:55;10.33;;;2.87;;
15915;SDS011;8057;47.830;-3.870;2024-02-23T18:26:05;12.27;;;4.63;;
15915;SDS011;8057;47.830;-3.870;2024-02-23T18:30:15;6.97;;;2.70;;
15915;SDS011;8057;47.830;-3.870;2024-02-23T18:34:24;10.30;;;2.70;;
15915;SDS011;8057;47.830;-3.870;2024-02-23T18:38:34;17.90;;;7.30;;
15915;SDS011;8057;47.830;-3.870;2024-02-23T18:42:43;8.87;;;4.20;;
15915;SDS011;8057;47.830;-3.870;2024-02-23T18:46:54;11.43;;;3.30;;
15915;SDS011;8057;47.830;-3.870;2024-02-23T18:51:05;11.47;;;3.60;;
15915;SDS011;8057;47.830;-3.870;2024-02-23T18:55:15;10.13;;;2.77;;
15915;SDS011;8057;47.830;-3.870;2024-02-23T18:59:24;7.00;;;2.47;;
15915;SDS011;8057;47.830;-3.870;2024-02-23T19:03:35;10.63;;;3.70;;
15915;SDS011;8057;47.830;-3.870;2024-02-23T19:07:44;13.43;;;6.83;;
15915;SDS011;8057;47.830;-3.870;2024-02-23T19:11:53;15.63;;;6.53;;
15915;SDS011;8057;47.830;-3.870;2024-02-23T19:16:03;13.97;;;6.63;;
15915;SDS011;8057;47.830;-3.870;2024-02-23T19:20:20;11.60;;;5.63;;
15915;SDS011;8057;47.830;-3.870;2024-02-23T19:24:30;14.93;;;6.40;;
15915;SDS011;8057;47.830;-3.870;2024-02-23T19:28:40;13.53;;;5.90;;
15915;SDS011;8057;47.830;-3.870;2024-02-23T19:32:49;5.83;;;2.60;;
15915;SDS011;8057;47.830;-3.870;2024-02-23T19:37:00;4.67;;;1.37;;
15915;SDS011;8057;47.830;-3.870;2024-02-23T19:41:09;5.27;;;1.60;;
15915;SDS011;8057;47.830;-3.870;2024-02-23T19:45:19;3.63;;;1.07;;
15915;SDS011;8057;47.830;-3.870;2024-02-23T19:49:30;3.80;;;2.50;;
15915;SDS011;8057;47.830;-3.870;2024-02-23T19:53:42;9.87;;;7.07;;
15915;SDS011;8057;47.830;-3.870;2024-02-23T19:57:52;8.37;;;7.53;;
15915;SDS011;8057;47.830;-3.870;2024-02-23T20:02:02;4.37;;;3.97;;
15915;SDS011;8057;47.830;-3.870;2024-02-23T20:06:15;3.40;;;1.23;;
15915;SDS011;8057;47.830;-3.870;2024-02-23T20:10:26;3.47;;;1.17;;
15915;SDS011;8057;47.830;-3.870;2024-02-23T20:14:35;1.97;;;1.23;;
15915;SDS011;8057;47.830;-3.870;2024-02-23T20:18:44;9.60;;;8.60;;
15915;SDS011;8057;47.830;-3.870;2024-02-23T20:22:54;4.87;;;2.63;;
15915;SDS011;8057;47.830;-3.870;2024-02-23T20:27:05;4.23;;;2.00;;
15915;SDS011;8057;47.830;-3.870;2024-02-23T20:31:14;5.43;;;2.03;;
15915;SDS011;8057;47.830;-3.870;2024-02-23T20:35:24;4.67;;;2.13;;
15915;SDS011;8057;47.830;-3.870;2024-02-23T20:39:35;3.77;;;1.63;;
15915;SDS011;8057;47.830;-3.870;2024-02-23T20:43:46;2.80;;;1.77;;
15915;SDS011;8057;47.830;-3.870;2024-02-23T20:47:55;4.60;;;3.00;;
15915;SDS011;8057;47.830;-3.870;2024-02-23T20:52:05;7.00;;;3.97;;
15915;SDS011;8057;47.830;-3.870;2024-02-23T20:56:17;4.93;;;3.30;;
15915;SDS011;8057;47.830;-3.870;2024-02-23T21:00:28;2.93;;;1.57;;
15915;SDS011;8057;47.830;-3.870;2024-02-23T21:04:37;11.43;;;9.70;;
15915;SDS011;8057;47.830;-3.870;2024-02-23T21:08:47;10.27;;;9.27;;
15915;SDS011;8057;47.830;-3.870;2024-02-23T21:12:58;8.43;;;5.40;;
15915;SDS011;8057;47.830;-3.870;2024-02-23T21:17:09;5.50;;;3.13;;
15915;SDS011;8057;47.830;-3.870;2024-02-23T21:21:19;4.03;;;2.03;;
15915;SDS011;8057;47.830;-3.870;2024-02-23T21:25:28;6.10;;;5.40;;
15915;SDS011;8057;47.830;-3.870;2024-02-23T21:29:37;5.23;;;2.90;;
15915;SDS011;8057;47.830;-3.870;2024-02-23T21:33:48;4.87;;;2.00;;
15915;SDS011;8057;47.830;-3.870;2024-02-23T21:38:00;6.77;;;1.90;;
15915;SDS011;8057;47.830;-3.870;2024-02-23T21:42:09;4.83;;;1.50;;
15915;SDS011;8057;47.830;-3.870;2024-02-23T21:46:19;4.40;;;1.67;;
15915;SDS011;8057;47.830;-3.870;2024-02-23T21:50:30;5.87;;;2.03;;
15915;SDS011;8057;47.830;-3.870;2024-02-23T21:54:39;4.73;;;2.10;;
15915;SDS011;8057;47.830;-3.870;2024-02-23T21:58:51;4.23;;;2.00;;
15915;SDS011;8057;47.830;-3.870;2024-02-23T22:03:03;4.40;;;2.07;;
15915;SDS011;8057;47.830;-3.870;2024-02-23T22:07:15;7.87;;;4.57;;
15915;SDS011;8057;47.830;-3.870;2024-02-23T22:11:25;7.53;;;4.77;;
15915;SDS011;8057;47.830;-3.870;2024-02-23T22:15:36;6.30;;;5.13;;
15915;SDS011;8057;47.830;-3.870;2024-02-23T22:19:52;5.83;;;3.10;;
15915;SDS011;8057;47.830;-3.870;2024-02-23T22:24:04;3.67;;;2.47;;
15915;SDS011;8057;47.830;-3.870;2024-02-23T22:28:13;6.63;;;3.83;;
15915;SDS011;8057;47.830;-3.870;2024-02-23T22:32:23;8.47;;;2.47;;
15915;SDS011;8057;47.830;-3.870;2024-02-23T22:36:34;3.93;;;1.60;;
15915;SDS011;8057;47.830;-3.870;2024-02-23T22:40:45;4.67;;;2.10;;
15915;SDS011;8057;47.830;-3.870;2024-02-23T22:44:55;2.50;;;1.13;;
15915;SDS011;8057;47.830;-3.870;2024-02-23T22:49:04;3.40;;;1.07;;
15915;SDS011;8057;47.830;-3.870;2024-02-23T22:53:13;2.97;;;1.03;;
15915;SDS011;8057;47.830;-3.870;2024-02-23T22:57:25;5.20;;;2.23;;
15915;SDS011;8057;47.830;-3.870;2024-02-23T23:01:35;5.73;;;1.70;;
15915;SDS011;8057;47.830;-3.870;2024-02-23T23:05:44;1.73;;;1.47;;
15915;SDS011;8057;47.830;-3.870;2024-02-23T23:09:55;2.97;;;1.70;;
15915;SDS011;8057;47.830;-3.870;2024-02-23T23:14:06;2.70;;;1.47;;
15915;SDS011;8057;47.830;-3.870;2024-02-23T23:18:16;4.50;;;1.97;;
15915;SDS011;8057;47.830;-3.870;2024-02-23T23:22:25;3.50;;;1.67;;
15915;SDS011;8057;47.830;-3.870;2024-02-23T23:26:35;5.43;;;1.83;;
15915;SDS011;8057;47.830;-3.870;2024-02-23T23:35:13;4.87;;;1.47;;
15915;SDS011;8057;47.830;-3.870;2024-02-23T23:39:22;6.93;;;1.80;;
15915;SDS011;8057;47.830;-3.870;2024-02-23T23:43:32;3.00;;;1.23;;
15915;SDS011;8057;47.830;-3.870;2024-02-23T23:47:42;3.77;;;1.53;;
15915;SDS011;8057;47.830;-3.870;2024-02-23T23:51:51;5.63;;;2.77;;
15915;SDS011;8057;47.830;-3.870;2024-02-23T23:56:09;7.13;;;2.50;;
